Time;durP1;ratioP1;P1;durP2;ratioP2;P2;SDS_P1;SDS_P2;PMS_P1;PMS_P2;Temp;Humidity;BMP_temperature;BMP_pressure;BME280_temperature;BME280_humidity;BME280_pressure;Samples;Min_cycle;Max_cycle;Signal;HPM_P1;HPM_P2
2023/08/22 00:02:58;;;;;;;3.63;2.10;;;;;;;18.41;100.00;101807.97;6326341;28;20047;-71
2023/08/22 00:05:59;;;;;;;1.35;1.17;;;;;;;18.42;100.00;101803.50;6326247;28;20051;-70
2023/08/22 00:09:04;;;;;;;3.22;1.70;;;;;;;18.47;100.00;101790.72;6326249;28;20048;-70
2023/08/22 00:12:07;;;;;;;3.13;1.73;;;;;;;18.43;100.00;101794.56;6326361;28;20048;-70
2023/08/22 00:15:10;;;;;;;5.38;2.33;;;;;;;18.34;100.00;101798.69;6325536;28;20052;-71
2023/08/22 00:18:12;;;;;;;3.85;1.42;;;;;;;18.31;100.00;101792.75;6326241;28;20044;-71
2023/08/22 00:21:13;;;;;;;7.90;1.55;;;;;;;18.32;100.00;101794.47;6326154;28;20044;-71
2023/08/22 00:24:14;;;;;;;4.95;1.88;;;;;;;18.23;100.00;101801.28;6325722;28;20059;-71
2023/08/22 00:27:17;;;;;;;1.30;1.20;;;;;;;18.26;100.00;101782.44;6311828;28;20441;-71
2023/08/22 00:30:18;;;;;;;2.22;1.30;;;;;;;18.24;100.00;101806.47;6289482;28;20044;-71
2023/08/22 00:33:20;;;;;;;2.53;1.42;;;;;;;18.20;100.00;101810.31;6291183;28;20049;-71
2023/08/22 00:36:21;;;;;;;7.22;1.70;;;;;;;18.22;100.00;101789.78;6295276;28;20048;-70
2023/08/22 00:39:24;;;;;;;2.28;1.38;;;;;;;18.27;100.00;101800.09;6300504;28;20060;-72
2023/08/22 00:42:27;;;;;;;3.75;1.60;;;;;;;18.19;100.00;101800.63;6300594;28;20045;-72
2023/08/22 00:45:28;;;;;;;3.28;1.63;;;;;;;18.12;100.00;101798.47;6288637;28;20052;-72
2023/08/22 00:48:30;;;;;;;4.75;1.30;;;;;;;18.08;100.00;101797.84;6296376;28;20475;-70
2023/08/22 00:51:31;;;;;;;2.15;1.33;;;;;;;17.99;100.00;101799.31;6300333;28;20056;-72
2023/08/22 00:54:33;;;;;;;2.60;1.40;;;;;;;18.06;100.00;101791.78;6300151;28;20051;-72
2023/08/22 00:57:36;;;;;;;2.80;1.30;;;;;;;18.09;100.00;101786.25;6300029;28;20049;-72
2023/08/22 01:00:37;;;;;;;4.03;1.60;;;;;;;18.09;100.00;101782.75;6300388;28;20051;-72
2023/08/22 01:03:39;;;;;;;2.67;1.02;;;;;;;18.11;100.00;101781.66;6289469;28;20395;-72
2023/08/22 01:06:50;;;;;;;3.10;1.40;;;;;;;18.09;100.00;101769.44;6300086;28;20190;-72
2023/08/22 01:09:56;;;;;;;2.70;1.30;;;;;;;18.02;100.00;101771.66;6299986;28;20044;-72
2023/08/22 01:13:05;;;;;;;4.30;1.45;;;;;;;18.02;100.00;101771.66;6300270;28;20452;-72
2023/08/22 01:16:07;;;;;;;3.15;1.50;;;;;;;18.02;100.00;101765.47;6299823;28;20055;-72
2023/08/22 01:19:09;;;;;;;2.95;1.42;;;;;;;18.02;100.00;101752.19;6300142;28;20059;-72
2023/08/22 01:22:12;;;;;;;1.75;1.30;;;;;;;18.05;100.00;101757.31;6288366;28;20048;-72
2023/08/22 01:25:13;;;;;;;3.47;1.33;;;;;;;18.07;100.00;101760.69;6299832;28;20048;-72
2023/08/22 01:28:20;;;;;;;1.85;1.23;;;;;;;18.07;100.00;101742.06;6302248;28;20094;-71
2023/08/22 01:31:29;;;;;;;2.38;1.40;;;;;;;18.02;100.00;101737.06;6304471;28;20059;-72
2023/08/22 01:34:31;;;;;;;;;;;;;;;17.98;100.00;101740.91;6280229;28;20045;-70
2023/08/22 01:37:37;;;;;;;1.33;1.17;;;;;;;18.00;100.00;101742.50;6280181;28;19921;-72
2023/08/22 01:40:38;;;;;;;2.67;1.40;;;;;;;18.03;100.00;101735.25;6279978;28;20361;-72
2023/08/22 01:43:43;;;;;;;5.75;1.92;;;;;;;18.05;100.00;101736.03;6280031;28;20048;-72
2023/08/22 01:46:44;;;;;;;2.95;1.38;;;;;;;18.10;100.00;101734.75;6279812;28;20052;-72
2023/08/22 01:49:46;;;;;;;4.78;1.55;;;;;;;18.06;100.00;101740.38;6279615;28;20049;-72
2023/08/22 01:52:48;;;;;;;9.85;1.65;;;;;;;18.02;100.00;101736.22;6279709;28;20052;-72
2023/08/22 01:55:50;;;;;;;6.90;1.50;;;;;;;18.05;100.00;101723.56;6279177;28;20053;-72
2023/08/22 01:58:51;;;;;;;3.25;1.50;;;;;;;18.12;100.00;101716.00;6279731;28;20084;-72
2023/08/22 02:01:53;;;;;;;2.35;1.52;;;;;;;18.13;100.00;101720.38;6279460;28;20041;-72
2023/08/22 02:04:54;;;;;;;7.32;1.42;;;;;;;18.14;100.00;101711.44;6279206;28;20041;-72
2023/08/22 02:07:57;;;;;;;3.95;1.45;;;;;;;18.15;100.00;101700.69;6279269;28;20053;-72
2023/08/22 02:10:58;;;;;;;1.05;0.85;;;;;;;18.20;100.00;101692.38;6278467;28;20044;-72
2023/08/22 02:14:00;;;;;;;3.15;1.30;;;;;;;18.16;100.00;101696.22;6279102;28;20060;-72
2023/08/22 02:17:01;;;;;;;3.13;1.20;;;;;;;18.08;100.00;101701.25;6278914;28;20357;-70
2023/08/22 02:20:04;;;;;;;2.03;1.40;;;;;;;18.06;100.00;101709.31;6279303;28;20045;-70
2023/08/22 02:23:07;;;;;;;2.88;1.45;;;;;;;18.07;100.00;101716.31;6278972;28;20049;-72
2023/08/22 02:26:08;;;;;;;4.93;1.70;;;;;;;17.99;100.00;101708.91;6278562;28;20500;-71
2023/08/22 02:29:10;;;;;;;2.55;1.70;;;;;;;18.00;100.00;101699.94;6291651;28;20056;-72
2023/08/22 02:32:11;;;;;;;3.25;1.90;;;;;;;18.04;100.00;101675.81;6282136;28;20068;-72
2023/08/22 02:35:13;;;;;;;2.17;1.17;;;;;;;18.03;100.00;101688.22;6295028;28;20055;-72
2023/08/22 02:38:15;;;;;;;3.65;2.00;;;;;;;18.01;100.00;101671.53;6302808;28;20059;-72
2023/08/22 02:41:17;;;;;;;3.22;1.60;;;;;;;18.03;100.00;101669.59;6303407;28;20053;-72
2023/08/22 02:44:18;;;;;;;4.18;1.67;;;;;;;17.95;100.00;101703.88;6290976;28;20052;-73
2023/08/22 02:47:20;;;;;;;2.35;1.45;;;;;;;17.99;100.00;101700.91;6297723;28;20060;-72
2023/08/22 02:50:23;;;;;;;2.35;1.30;;;;;;;17.98;100.00;101703.66;6303055;28;20048;-70
2023/08/22 02:53:25;;;;;;;3.72;1.40;;;;;;;18.00;100.00;101704.41;6303179;28;20428;-70
2023/08/22 02:56:27;;;;;;;1.83;1.40;;;;;;;18.06;100.00;101698.66;6302997;28;20049;-71
2023/08/22 02:59:28;;;;;;;1.88;1.10;;;;;;;18.07;100.00;101707.50;6303092;28;20057;-71
2023/08/22 03:02:30;;;;;;;2.72;1.52;;;;;;;18.04;100.00;101697.94;6302938;28;20040;-71
2023/08/22 03:05:31;;;;;;;6.05;1.60;;;;;;;18.06;100.00;101682.69;6302475;28;20373;-70
2023/08/22 03:08:34;;;;;;;1.50;1.17;;;;;;;18.09;100.00;101673.66;6302811;28;20052;-71
2023/08/22 03:11:35;;;;;;;1.88;1.30;;;;;;;18.06;100.00;101696.00;6302516;28;20056;-70
2023/08/22 03:14:36;;;;;;;2.30;1.52;;;;;;;18.06;100.00;101692.50;6302515;28;20056;-70
2023/08/22 03:17:38;;;;;;;1.58;1.33;;;;;;;18.00;100.00;101694.63;6302443;28;20052;-70
2023/08/22 03:20:39;;;;;;;3.38;1.80;;;;;;;17.94;100.00;101711.03;6302609;28;20059;-71
2023/08/22 03:23:42;;;;;;;3.90;1.65;;;;;;;17.95;100.00;101710.06;6302112;28;20036;-71
2023/08/22 03:26:43;;;;;;;2.78;1.25;;;;;;;18.01;100.00;101695.47;6293801;28;20475;-71
2023/08/22 03:29:45;;;;;;;1.13;1.00;;;;;;;18.06;100.00;101685.38;6302124;28;20048;-70
2023/08/22 03:32:46;;;;;;;3.25;1.10;;;;;;;18.07;100.00;101707.50;6302035;28;20040;-71
2023/08/22 03:35:48;;;;;;;2.13;1.30;;;;;;;18.00;100.00;101712.41;6301919;28;20055;-70
2023/08/22 03:38:51;;;;;;;5.68;1.42;;;;;;;17.99;100.00;101708.03;6301699;28;20055;-70
2023/08/22 03:41:53;;;;;;;2.00;1.40;;;;;;;18.00;100.00;101685.81;6301888;28;20433;-71
2023/08/22 03:44:54;;;;;;;1.55;1.10;;;;;;;18.01;100.00;101668.88;6301766;28;20052;-70
2023/08/22 03:47:55;;;;;;;3.30;1.50;;;;;;;17.99;100.00;101669.00;6301936;28;20062;-70
2023/08/22 03:50:57;;;;;;;3.03;1.50;;;;;;;17.99;100.00;101686.78;6300899;28;20455;-70
2023/08/22 03:54:00;;;;;;;3.67;1.52;;;;;;;17.90;100.00;101685.59;6301572;28;20048;-70
2023/08/22 03:57:01;;;;;;;1.88;1.20;;;;;;;17.87;100.00;101695.59;6301324;28;20056;-70
2023/08/22 04:00:04;;;;;;;1.92;1.45;;;;;;;17.81;100.00;101717.28;6301594;28;20060;-70
2023/08/22 04:03:06;;;;;;;2.70;1.42;;;;;;;17.82;100.00;101703.03;6301391;28;20432;-70
2023/08/22 04:06:07;;;;;;;7.22;1.77;;;;;;;17.78;100.00;101686.44;6301163;28;20060;-70
2023/08/22 04:09:10;;;;;;;5.25;1.50;;;;;;;17.83;100.00;101667.50;6298987;28;20357;-70
2023/08/22 04:12:12;;;;;;;4.97;1.83;;;;;;;17.83;100.00;101680.78;6297466;28;20045;-70
2023/08/22 04:15:14;;;;;;;4.25;1.38;;;;;;;17.83;100.00;101696.75;6301185;28;20056;-70
2023/08/22 04:18:16;;;;;;;1.95;1.67;;;;;;;17.76;100.00;101696.34;6295978;28;20053;-70
2023/08/22 04:21:17;;;;;;;4.65;1.73;;;;;;;17.71;100.00;101690.41;6286795;28;20467;-70
2023/08/22 04:24:20;;;;;;;3.28;1.52;;;;;;;17.72;100.00;101687.69;6280980;28;20048;-70
2023/08/22 04:27:21;;;;;;;4.13;1.58;;;;;;;17.75;100.00;101674.19;6294519;28;20929;-70
2023/08/22 04:30:23;;;;;;;1.60;1.35;;;;;;;17.70;100.00;101688.72;6291512;28;20595;-72
2023/08/22 04:33:24;;;;;;;7.90;1.80;;;;;;;17.68;100.00;101701.28;6286997;28;20053;-70
2023/08/22 04:36:26;;;;;;;3.20;1.60;;;;;;;17.67;100.00;101711.06;6289803;28;20045;-70
2023/08/22 04:39:28;;;;;;;1.90;1.30;;;;;;;17.68;100.00;101686.19;6295993;28;20048;-70
2023/08/22 04:42:30;;;;;;;3.17;1.83;;;;;;;17.72;100.00;101671.72;6288879;28;20051;-70
2023/08/22 04:45:31;;;;;;;2.83;1.60;;;;;;;17.72;100.00;101657.59;6286340;28;20436;-70
2023/08/22 04:48:33;;;;;;;5.18;1.55;;;;;;;17.69;100.00;101663.94;6287032;28;20048;-70
2023/08/22 04:51:34;;;;;;;4.00;1.60;;;;;;;17.61;100.00;101676.06;6290341;28;20429;-70
2023/08/22 04:54:37;;;;;;;3.92;1.90;;;;;;;17.58;100.00;101684.25;6287619;28;20051;-70
2023/08/22 04:57:38;;;;;;;6.20;1.40;;;;;;;17.60;100.00;101667.25;6287162;28;20056;-70
2023/08/22 05:00:40;;;;;;;2.97;1.55;;;;;;;17.63;100.00;101677.66;6288698;28;20355;-70
2023/08/22 05:03:41;;;;;;;2.88;1.80;;;;;;;17.58;100.00;101670.97;6285827;28;20040;-70
2023/08/22 05:06:43;;;;;;;2.38;1.40;;;;;;;17.55;100.00;101677.34;6287439;28;20045;-70
2023/08/22 05:09:46;;;;;;;4.45;1.52;;;;;;;17.54;100.00;101678.28;6286464;28;20044;-70
2023/08/22 05:12:47;;;;;;;2.85;1.63;;;;;;;17.59;100.00;101678.84;6288474;28;20037;-70
2023/08/22 05:15:49;;;;;;;2.58;1.50;;;;;;;17.58;100.00;101678.94;6285075;28;20326;-70
2023/08/22 05:18:50;;;;;;;3.40;1.30;;;;;;;17.60;100.00;101667.25;6287110;28;20055;-70
2023/08/22 05:21:52;;;;;;;3.10;1.58;;;;;;;17.63;100.00;101680.31;6287943;28;20341;-70
2023/08/22 05:24:54;;;;;;;5.75;1.85;;;;;;;17.64;100.00;101681.19;6287140;28;20045;-70
2023/08/22 05:27:56;;;;;;;3.55;1.58;;;;;;;17.63;100.00;101684.78;6286249;28;20048;-70
2023/08/22 05:30:57;;;;;;;1.35;1.20;;;;;;;17.64;100.00;101684.69;6287951;28;20045;-70
2023/08/22 05:33:59;;;;;;;2.70;1.63;;;;;;;17.67;100.00;101680.97;6283132;28;20048;-70
2023/08/22 05:37:00;;;;;;;2.63;1.38;;;;;;;17.70;100.00;101678.94;6274638;28;20515;-70
2023/08/22 05:40:06;;;;;;;3.50;1.50;;;;;;;17.75;100.00;101684.81;6289423;28;20048;-70
2023/08/22 05:43:07;;;;;;;1.95;1.38;;;;;;;17.79;100.00;101684.63;6299720;28;20440;-70
2023/08/22 05:46:09;;;;;;;2.00;1.40;;;;;;;17.81;100.00;101688.88;6298929;28;20132;-70
2023/08/22 05:49:12;;;;;;;2.60;1.60;;;;;;;17.81;100.00;101690.69;6285699;28;20114;-70
2023/08/22 05:52:13;;;;;;;2.75;1.58;;;;;;;17.85;100.00;101689.50;6279322;28;20056;-70
2023/08/22 05:55:16;;;;;;;3.72;1.73;;;;;;;17.89;100.00;101683.03;6274556;28;20464;-70
2023/08/22 05:58:18;;;;;;;5.18;1.33;;;;;;;17.98;100.00;101690.38;6295541;28;20352;-70
2023/08/22 06:01:19;;;;;;;5.05;1.63;;;;;;;18.00;100.00;101683.13;6299059;28;20459;-70
2023/08/22 06:04:21;;;;;;;2.67;1.50;;;;;;;18.02;100.00;101691.00;6290732;28;20051;-70
2023/08/22 06:07:23;;;;;;;5.97;1.98;;;;;;;18.03;100.00;101690.88;6291171;28;20055;-70
2023/08/22 06:10:26;;;;;;;3.40;1.45;;;;;;;18.02;100.00;101693.66;6279782;28;20364;-70
2023/08/22 06:13:27;;;;;;;2.08;1.50;;;;;;;18.04;100.00;101683.78;6275254;28;20044;-70
2023/08/22 06:16:29;;;;;;;3.28;1.70;;;;;;;18.11;100.00;101685.03;6278708;28;20361;-70
2023/08/22 06:19:30;;;;;;;4.13;1.60;;;;;;;18.14;100.00;101684.84;6287272;28;20052;-70
2023/08/22 06:22:31;;;;;;;4.03;1.88;;;;;;;18.16;100.00;101677.59;6299350;28;20048;-70
2023/08/22 06:25:34;;;;;;;3.83;2.00;;;;;;;18.18;100.00;101683.66;6303414;28;20053;-70
2023/08/22 06:28:36;;;;;;;3.00;1.50;;;;;;;18.23;100.00;101681.53;6303707;28;20056;-70
2023/08/22 06:31:38;;;;;;;4.85;1.48;;;;;;;18.27;100.00;101677.69;6303601;28;20059;-70
2023/08/22 06:34:40;;;;;;;4.00;1.95;;;;;;;18.31;100.00;101681.00;6303300;28;20051;-70
2023/08/22 06:37:41;;;;;;;3.03;1.85;;;;;;;18.40;100.00;101685.66;6303214;28;20468;-70
2023/08/22 06:40:44;;;;;;;3.88;1.60;;;;;;;18.43;100.00;101683.59;6303427;28;20467;-70
2023/08/22 06:43:45;;;;;;;1.65;1.27;;;;;;;18.47;100.00;101693.06;6303312;28;20056;-70
2023/08/22 06:46:47;;;;;;;2.10;1.20;;;;;;;18.51;100.00;101678.59;6303189;28;20048;-70
2023/08/22 06:49:49;;;;;;;4.80;2.40;;;;;;;18.51;100.00;101683.91;6303632;28;20048;-70
2023/08/22 06:52:50;;;;;;;4.15;1.70;;;;;;;18.57;100.00;101690.59;6293557;28;20045;-70
2023/08/22 06:55:55;;;;;;;4.22;1.73;;;;;;;18.62;100.00;101687.59;6300949;28;20052;-71
2023/08/22 06:58:57;;;;;;;3.92;1.55;;;;;;;18.64;100.00;101683.88;6303131;28;20048;-70
2023/08/22 07:01:59;;;;;;;3.38;1.50;;;;;;;18.67;100.00;101683.69;6296986;28;20048;-70
2023/08/22 07:05:00;;;;;;;6.22;1.45;;;;;;;18.69;100.00;101681.78;6290598;28;20048;-70
2023/08/22 07:08:02;;;;;;;5.00;1.65;;;;;;;18.66;100.00;101683.75;6289401;28;20049;-70
2023/08/22 07:11:05;;;;;;;3.10;1.80;;;;;;;18.68;100.00;101679.19;6290686;28;20045;-70
2023/08/22 07:14:07;;;;;;;3.63;1.52;;;;;;;18.74;100.00;101678.78;6290111;28;20052;-70
2023/08/22 07:17:08;;;;;;;3.72;1.40;;;;;;;18.77;100.00;101673.22;6290375;28;20591;-70
2023/08/22 07:20:10;;;;;;;3.85;1.33;;;;;;;18.80;100.00;101670.31;6290883;28;20049;-71
2023/08/22 07:23:11;;;;;;;1.98;1.48;;;;;;;18.83;100.00;101672.78;6290293;28;20049;-71
2023/08/22 07:26:14;;;;;;;2.13;1.48;;;;;;;18.86;100.00;101669.06;6286819;28;20353;-70
2023/08/22 07:29:15;;;;;;;5.93;1.85;;;;;;;18.90;100.00;101681.19;6287750;28;20048;-71
2023/08/22 07:32:18;;;;;;;2.08;1.48;;;;;;;18.95;100.00;101677.22;6292233;28;20045;-71
2023/08/22 07:35:20;;;;;;;7.38;1.30;;;;;;;19.00;100.00;101682.19;6287909;28;20057;-70
2023/08/22 07:38:22;;;;;;;5.03;1.88;;;;;;;19.00;100.00;101679.53;6294925;28;20082;-71
2023/08/22 07:41:25;;;;;;;3.33;1.70;;;;;;;19.08;100.00;101685.16;6292592;28;20441;-71
2023/08/22 07:44:26;;;;;;;2.90;1.67;;;;;;;19.14;100.00;101681.19;6293970;28;20441;-71
2023/08/22 07:47:27;;;;;;;2.65;1.77;;;;;;;19.16;100.00;101674.75;6295489;28;20047;-71
2023/08/22 07:50:30;;;;;;;6.25;1.77;;;;;;;19.19;100.00;101673.69;6290787;28;20060;-71
2023/08/22 07:53:32;;;;;;;4.60;2.53;;;;;;;19.20;100.00;101680.69;6292252;28;20044;-71
2023/08/22 07:56:35;;;;;;;3.60;1.50;;;;;;;19.23;100.00;101686.66;6301272;28;20197;-71
2023/08/22 07:59:37;;;;;;;4.30;1.75;;;;;;;19.31;100.00;101685.25;6301543;28;20103;-71
2023/08/22 08:02:39;;;;;;;2.85;1.58;;;;;;;19.35;100.00;101689.34;6298472;28;20280;-71
2023/08/22 08:05:41;;;;;;;1.48;1.25;;;;;;;19.40;100.00;101682.75;6281427;28;20506;-71
2023/08/22 08:08:42;;;;;;;4.00;1.80;;;;;;;19.43;100.00;101697.63;6296411;28;20052;-70
2023/08/22 08:11:45;;;;;;;2.50;1.30;;;;;;;19.52;100.00;101699.59;6288353;28;20044;-70
2023/08/22 08:14:46;;;;;;;2.95;1.60;;;;;;;19.58;100.00;101696.50;6288135;28;20421;-70
2023/08/22 08:17:47;;;;;;;3.05;1.15;;;;;;;19.64;100.00;101700.53;6289195;28;20055;-70
2023/08/22 08:20:49;;;;;;;1.95;1.52;;;;;;;19.64;100.00;101700.53;6287086;28;20353;-71
2023/08/22 08:23:50;;;;;;;4.78;2.10;;;;;;;19.64;100.00;101695.19;6288780;28;20044;-71
2023/08/22 08:26:53;;;;;;;3.92;1.20;;;;;;;19.71;100.00;101697.28;6286908;28;20071;-70
2023/08/22 08:29:55;;;;;;;1.80;1.17;;;;;;;19.80;100.00;101701.03;6287839;28;20051;-72
2023/08/22 08:32:56;;;;;;;4.07;1.60;;;;;;;19.87;100.00;101696.94;6287532;28;20167;-72
2023/08/22 08:35:58;;;;;;;7.22;2.22;;;;;;;19.93;100.00;101695.59;6286672;28;20135;-70
2023/08/22 08:38:59;;;;;;;2.10;1.30;;;;;;;20.02;100.00;101697.56;6288172;28;20459;-71
2023/08/22 08:42:04;;;;;;;5.78;2.97;;;;;;;20.18;100.00;101694.56;6286148;28;20052;-72
2023/08/22 08:45:07;;;;;;;5.15;1.90;;;;;;;20.21;100.00;101695.16;6287347;28;20436;-71
2023/08/22 08:48:08;;;;;;;4.05;1.60;;;;;;;20.29;100.00;101694.53;6287294;28;20048;-71
2023/08/22 08:51:10;;;;;;;3.33;1.60;;;;;;;20.30;100.00;101687.38;6286821;28;20052;-71
2023/08/22 08:54:12;;;;;;;2.30;1.63;;;;;;;20.40;100.00;101691.88;6291750;28;20040;-71
2023/08/22 08:57:15;;;;;;;2.65;1.40;;;;;;;20.45;100.00;101695.03;6300561;28;20044;-71
2023/08/22 09:00:17;;;;;;;7.43;2.03;;;;;;;20.55;100.00;101699.66;6287244;28;20445;-70
2023/08/22 09:03:19;;;;;;;1.88;1.50;;;;;;;20.57;100.00;101709.22;6278561;28;20460;-72
2023/08/22 09:06:20;;;;;;;1.90;1.65;;;;;;;20.64;100.00;101702.44;6286236;28;20071;-70
2023/08/22 09:09:24;;;;;;;3.03;1.65;;;;;;;20.84;100.00;101699.97;6287990;28;20048;-71
2023/08/22 09:12:34;;;;;;;3.33;1.90;;;;;;;21.00;100.00;101706.63;6286383;28;20045;-71
2023/08/22 09:15:35;;;;;;;7.60;4.45;;;;;;;21.12;100.00;101701.22;6286931;28;20068;-72
2023/08/22 09:18:42;;;;;;;4.85;2.08;;;;;;;21.21;100.00;101692.44;6287539;28;20048;-71
2023/08/22 09:21:57;;;;;;;6.95;1.70;;;;;;;21.25;100.00;101699.22;6290547;28;20041;-71
2023/08/22 09:24:59;;;;;;;8.30;1.42;;;;;;;21.32;100.00;101700.47;6275527;28;20045;-69
2023/08/22 09:28:01;;;;;;;3.08;1.13;;;;;;;21.37;100.00;101687.53;6282653;28;20051;-70
2023/08/22 09:31:03;;;;;;;4.38;1.30;;;;;;;21.42;100.00;101692.50;6289589;28;20091;-70
2023/08/22 09:34:09;;;;;;;2.63;1.25;;;;;;;21.49;100.00;101702.56;6288665;28;20037;-70
2023/08/22 09:37:11;;;;;;;3.95;1.48;;;;;;;21.47;100.00;101698.31;6284331;28;20047;-70
2023/08/22 09:40:16;;;;;;;1.88;1.30;;;;;;;21.46;100.00;101693.94;6291266;28;20459;-69
2023/08/22 09:43:20;;;;;;;2.30;1.27;;;;;;;21.44;100.00;101695.91;6283089;28;20045;-70
2023/08/22 09:46:22;;;;;;;3.92;2.25;;;;;;;21.48;100.00;101694.66;6281650;28;20059;-70
2023/08/22 09:49:24;;;;;;;2.60;1.20;;;;;;;21.57;100.00;101696.56;6292234;28;20637;-70
2023/08/22 09:52:26;;;;;;;3.08;1.45;;;;;;;;;;6304667;28;20139;-70
2023/08/22 09:55:27;;;;;;;2.25;1.50;;;;;;;21.71;100.00;101700.72;6304032;28;20044;-70
2023/08/22 09:58:32;;;;;;;3.50;1.70;;;;;;;21.80;100.00;101691.91;6295250;28;20333;-71
2023/08/22 10:01:39;;;;;;;3.08;1.63;;;;;;;21.87;100.00;101694.94;6289078;28;20049;-70
2023/08/22 10:04:41;;;;;;;5.32;1.63;;;;;;;22.00;100.00;101692.88;6279352;28;20056;-70
2023/08/22 10:07:43;;;;;;;2.63;1.10;;;;;;;22.01;100.00;101694.56;6279264;28;20195;-69
2023/08/22 10:10:47;;;;;;;2.83;1.17;;;;;;;22.10;100.00;101691.09;6282179;28;20049;-70
2023/08/22 10:13:51;;;;;;;4.22;1.40;;;;;;;22.15;100.00;101688.91;6279119;28;20041;-69
2023/08/22 10:16:55;;;;;;;2.72;1.77;;;;;;;22.19;100.00;101684.97;6279076;28;20053;-70
2023/08/22 10:20:01;;;;;;;1.38;1.20;;;;;;;22.20;100.00;101691.16;6279109;28;20053;-70
2023/08/22 10:23:02;;;;;;;1.27;0.82;;;;;;;22.34;96.24;101696.16;6278950;28;20106;-70
2023/08/22 10:26:04;;;;;;;2.42;1.02;;;;;;;22.54;92.93;101697.94;6279044;28;20052;-70
2023/08/22 10:29:17;;;;;;;4.75;1.13;;;;;;;22.66;83.39;101692.44;6278698;28;20049;-69
2023/08/22 10:32:28;;;;;;;4.15;1.15;;;;;;;22.67;86.37;101692.34;6279000;28;20174;-70
2023/08/22 10:35:29;;;;;;;1.88;1.02;;;;;;;22.61;88.58;101689.34;6278290;28;20045;-71
2023/08/22 10:38:48;;;;;;;2.03;1.02;;;;;;;22.68;82.79;101693.19;6278711;28;20053;-70
2023/08/22 10:41:56;;;;;;;5.25;0.82;;;;;;;22.62;85.04;101685.66;6278602;28;20102;-70
2023/08/22 10:44:59;;;;;;;0.63;0.60;;;;;;;22.68;83.73;101695.84;6278449;28;20045;-70
2023/08/22 10:48:09;;;;;;;2.55;0.80;;;;;;;22.80;83.30;101686.72;6278632;28;20056;-70
2023/08/22 10:51:11;;;;;;;1.17;0.77;;;;;;;22.89;80.78;101683.25;6278620;28;20136;-71
2023/08/22 10:54:16;;;;;;;1.95;0.80;;;;;;;22.97;78.31;101682.53;6278011;28;20130;-70
2023/08/22 10:57:19;;;;;;;0.90;0.80;;;;;;;22.96;79.73;101691.56;6278633;28;20429;-71
2023/08/22 11:00:23;;;;;;;1.60;0.70;;;;;;;23.18;77.79;101687.78;6277755;28;20048;-70
2023/08/22 11:03:25;;;;;;;1.35;0.70;;;;;;;23.21;79.99;101690.16;6278267;28;20126;-70
2023/08/22 11:06:26;;;;;;;2.75;0.90;;;;;;;23.25;78.01;101683.53;6277673;28;20468;-71
2023/08/22 11:09:28;;;;;;;2.08;0.70;;;;;;;23.21;76.51;101676.75;6278071;28;20049;-70
2023/08/22 11:12:30;;;;;;;6.20;0.75;;;;;;;23.20;74.46;101681.25;6278011;28;20064;-70
2023/08/22 11:15:33;;;;;;;0.60;0.47;;;;;;;23.29;74.31;101683.09;6277514;28;20045;-70
2023/08/22 11:18:34;;;;;;;1.98;0.82;;;;;;;23.35;75.04;101681.72;6278268;28;20421;-71
2023/08/22 11:21:39;;;;;;;2.63;0.80;;;;;;;23.39;75.51;101675.06;6277918;28;20413;-70
2023/08/22 11:24:42;;;;;;;5.22;0.57;;;;;;;23.45;76.36;101666.44;6277316;28;20049;-71
2023/08/22 11:27:43;;;;;;;5.20;0.80;;;;;;;23.47;75.52;101660.91;6277572;28;20071;-70
2023/08/22 11:30:50;;;;;;;0.70;0.40;;;;;;;23.52;73.59;101666.69;6277489;28;20052;-71
2023/08/22 11:33:52;;;;;;;1.50;0.88;;;;;;;23.48;75.98;101663.47;6277168;28;20049;-70
2023/08/22 11:36:53;;;;;;;2.17;0.45;;;;;;;23.56;71.20;101662.75;6277123;28;20057;-70
2023/08/22 11:39:57;;;;;;;0.93;0.75;;;;;;;23.73;70.45;101672.78;6277147;28;20052;-70
2023/08/22 11:42:59;;;;;;;1.02;0.75;;;;;;;23.95;72.18;101674.28;6277161;28;20057;-71
2023/08/22 11:46:09;;;;;;;0.40;0.40;;;;;;;24.16;65.90;101673.19;6276762;28;20429;-73
2023/08/22 11:49:11;;;;;;;0.82;0.52;;;;;;;24.19;70.26;101683.66;6277214;28;20056;-71
2023/08/22 11:52:12;;;;;;;1.63;0.50;;;;;;;24.26;67.85;101677.53;6335691;22;20082;-74
2023/08/22 11:55:17;;;;;;;0.50;0.30;;;;;;;24.38;63.06;101672.00;6326276;28;20054;-73
2023/08/22 11:58:18;;;;;;;1.92;0.60;;;;;;;24.50;66.48;101673.50;6326888;28;20058;-73
2023/08/22 12:01:23;;;;;;;1.38;0.50;;;;;;;24.44;66.58;101671.41;6302988;28;20056;-73
2023/08/22 12:04:24;;;;;;;0.55;0.50;;;;;;;24.47;63.98;101668.41;6301233;28;20471;-73
2023/08/22 12:07:26;;;;;;;0.45;0.40;;;;;;;24.26;68.11;101669.50;6301314;28;20056;-74
2023/08/22 12:10:39;;;;;;;1.02;0.60;;;;;;;24.16;66.11;101674.03;6300910;28;20457;-73
2023/08/22 12:13:40;;;;;;;0.43;0.43;;;;;;;24.18;66.28;101676.59;6300912;28;20141;-73
2023/08/22 12:16:43;;;;;;;1.00;0.40;;;;;;;24.18;68.19;101679.28;6300949;28;20055;-74
2023/08/22 12:19:44;;;;;;;0.40;0.40;;;;;;;24.21;67.87;101687.03;6301015;28;20056;-73
2023/08/22 12:22:46;;;;;;;0.75;0.50;;;;;;;24.18;67.58;101679.28;6301039;28;20085;-73
2023/08/22 12:25:47;;;;;;;1.30;0.50;;;;;;;24.17;65.49;101688.34;6300535;28;20451;-73
2023/08/22 12:28:48;;;;;;;0.93;0.80;;;;;;;24.04;66.60;101683.28;6301140;28;20044;-73
2023/08/22 12:31:51;;;;;;;1.08;0.65;;;;;;;24.02;65.02;101687.94;6300717;28;20056;-73
2023/08/22 12:34:52;;;;;;;2.42;1.40;;;;;;;23.95;67.45;101697.59;6300457;28;20350;-73
2023/08/22 12:37:55;;;;;;;2.10;0.95;;;;;;;24.01;68.56;101692.47;6300967;28;20048;-73
2023/08/22 12:40:57;;;;;;;2.03;0.80;;;;;;;24.04;69.03;101686.81;6300691;28;20428;-73
2023/08/22 12:43:58;;;;;;;2.20;1.30;;;;;;;24.01;70.57;101683.56;6300538;28;20357;-73
2023/08/22 12:47:01;;;;;;;1.83;0.98;;;;;;;24.06;69.07;101683.97;6300496;28;20052;-73
2023/08/22 12:50:03;;;;;;;0.80;0.65;;;;;;;24.08;70.49;101689.22;6300428;28;20056;-72
2023/08/22 12:53:08;;;;;;;1.83;0.98;;;;;;;24.09;72.19;101693.59;6300650;28;20051;-69
2023/08/22 12:56:10;;;;;;;1.50;0.70;;;;;;;24.12;71.36;101694.16;6300197;28;20044;-68
2023/08/22 12:59:11;;;;;;;1.02;0.70;;;;;;;24.12;71.58;101690.59;6300230;28;20344;-69
2023/08/22 13:02:14;;;;;;;2.53;0.80;;;;;;;24.06;72.45;101686.66;6300350;28;20060;-69
2023/08/22 13:05:16;;;;;;;3.45;1.88;;;;;;;23.92;72.46;101687.13;6305361;28;20044;-69
2023/08/22 13:08:17;;;;;;;8.52;4.78;;;;;;;23.85;75.20;101686.88;6315179;28;20047;-69
2023/08/22 13:11:19;;;;;;;3.90;1.15;;;;;;;23.90;73.59;101684.59;6315909;28;20051;-71
2023/08/22 13:14:20;;;;;;;1.58;0.82;;;;;;;23.86;73.95;101680.50;6312710;28;20113;-69
2023/08/22 13:17:23;;;;;;;9.35;2.35;;;;;;;23.91;76.13;101683.59;6315640;28;20582;-68
2023/08/22 13:20:25;;;;;;;0.90;0.88;;;;;;;23.97;75.28;101680.31;6322183;28;20060;-75
2023/08/22 13:23:26;;;;;;;2.20;0.95;;;;;;;24.01;75.66;101688.94;6303384;28;20063;-78
2023/08/22 13:26:27;;;;;;;2.83;0.90;;;;;;;24.00;74.53;101696.16;6304934;28;20040;-75
2023/08/22 13:29:29;;;;;;;2.10;1.55;;;;;;;24.03;75.89;101686.97;6306783;28;20051;-69
2023/08/22 13:32:32;;;;;;;1.40;0.93;;;;;;;24.01;76.48;101687.09;6330055;28;20454;-70
2023/08/22 13:35:33;;;;;;;6.05;0.93;;;;;;;23.95;76.65;101684.16;6329898;28;20059;-70
2023/08/22 13:38:34;;;;;;;2.65;1.20;;;;;;;24.03;74.11;101666.34;6329972;28;20052;-69
2023/08/22 13:41:36;;;;;;;1.80;0.98;;;;;;;24.36;74.94;101658.69;6330119;28;20056;-70
2023/08/22 13:44:37;;;;;;;1.95;1.00;;;;;;;24.66;77.64;101665.59;6329556;28;20055;-69
2023/08/22 13:47:40;;;;;;;0.93;0.80;;;;;;;24.77;71.74;101662.72;6330054;28;20052;-71
2023/08/22 13:50:42;;;;;;;0.85;0.80;;;;;;;24.64;74.81;101666.75;6329507;28;20066;-70
2023/08/22 13:53:43;;;;;;;1.95;0.77;;;;;;;24.53;74.17;101662.47;6329702;28;20051;-70
2023/08/22 13:56:44;;;;;;;3.28;1.20;;;;;;;24.86;72.42;101660.13;6329269;28;20439;-69
2023/08/22 13:59:46;;;;;;;3.00;0.88;;;;;;;25.27;74.61;101664.06;6329539;28;20074;-70
2023/08/22 14:02:49;;;;;;;1.40;0.88;;;;;;;25.50;67.19;101673.31;6329601;28;20048;-71